Airfield :
LOGIN :

Register | Disclaimer

   EN    FR    IT 

 










Legend :    VFR   Marginal VFR   IFR   Intensive IFR   Very Intensive IFR
Visi :
Ceiling :
>= 8 km
>= 3000ft
5 to 8 km
1000 to 3000 ft
1500m to 5 km
500 to 1000 ft
800 to 1500m
200 to 500 ft
< 800m
< 200 ft
Symbols :   Thunderstorms  Fog  Heavy snow  Heavy precipitations  Wind > 20 kt
SIGMETs :     Misc.  Thunderstorms  Icing  Turbulence  Mountain Waves  Volcanic Ashes






- Airport Elevation : 364 ft


LFAQ - Albert Bray

CURRENT METAR :
  • 301430Z AUTO 02008KT 3600 BR OVC005 06/06 Q1024 TEMPO 0700 FG VV///

EXPIRED METARs :
  • 301400Z AUTO 02008KT 4000 BR OVC005 06/06 Q1024 TEMPO BKN013 BECMG 9999 NSW
  • 301330Z AUTO 02006KT 3800 BR OVC004 06/06 Q1024 TEMPO BKN013 BECMG 9999 NSW
  • 301300Z AUTO 02005KT 3900 BR OVC005 06/06 Q1024 TEMPO BKN013 BECMG 9999 NSW
  • 301230Z AUTO 02006KT 3900 BR OVC004 06/06 Q1024 TEMPO BKN013 BECMG 9999 NSW
  • 301200Z AUTO 01005KT 3200 BR OVC004 06/06 Q1024 BECMG 9999 NSW OVC007
  • 301130Z AUTO 01005KT 330V050 3400 BR OVC004 06/06 Q1024 BECMG 9999 NSW OVC007

TAF TAF LFAQ
Valid from the 30 at 15:00 until the 01 at 00:00 UTC


301400Z 3015/3024 03005KT 4000 BR OVC004
PROB40
TEMPO 3015/3024 0700 FG VV///



MET'MAP, your aeronautical weather chart ! - Copyright ORBIFLY December 2007 - Disclaimer

ORBIFLY MET'MAP TEAM :

Programming & Development : Alexandra Zaïnal
Original concept : Baudouin d'Aumeries
Technical & hardware support : Manuel Goepfert
Assistance : Marc-Olivier Méhu




SOURCES & CREDITS :

   NOAA